sensor_id;sensor_type;location;lat;lon;timestamp;pressure;altitude;pressure_sealevel;temperature;humidity
19596;BME280;9945;46.010;8.946;2023-09-12T00:00:43;97175.00;;;25.35;81.31
19596;BME280;9945;46.010;8.946;2023-09-12T00:03:09;97171.03;;;25.38;81.10
19596;BME280;9945;46.010;8.946;2023-09-12T00:05:38;97171.13;;;25.43;79.76
19596;BME280;9945;46.010;8.946;2023-09-12T00:08:05;97175.28;;;25.50;77.82
19596;BME280;9945;46.010;8.946;2023-09-12T00:10:32;97179.00;;;25.49;76.90
19596;BME280;9945;46.010;8.946;2023-09-12T00:12:59;97171.78;;;25.50;76.73
19596;BME280;9945;46.010;8.946;2023-09-12T00:15:28;97167.72;;;25.47;76.57
19596;BME280;9945;46.010;8.946;2023-09-12T00:17:55;97175.75;;;25.47;76.52
19596;BME280;9945;46.010;8.946;2023-09-12T00:20:21;97170.72;;;25.34;76.84
19596;BME280;9945;46.010;8.946;2023-09-12T00:22:50;97170.53;;;25.24;78.02
19596;BME280;9945;46.010;8.946;2023-09-12T00:25:18;97170.63;;;25.29;77.07
19596;BME280;9945;46.010;8.946;2023-09-12T00:27:45;97164.38;;;25.23;76.90
19596;BME280;9945;46.010;8.946;2023-09-12T00:30:14;97173.53;;;25.27;76.81
19596;BME280;9945;46.010;8.946;2023-09-12T00:32:41;97168.31;;;25.04;76.57
19596;BME280;9945;46.010;8.946;2023-09-12T00:35:08;97168.16;;;25.11;76.31
19596;BME280;9945;46.010;8.946;2023-09-12T00:37:34;97162.41;;;24.91;77.89
19596;BME280;9945;46.010;8.946;2023-09-12T00:40:03;97164.25;;;25.02;77.47
19596;BME280;9945;46.010;8.946;2023-09-12T00:42:30;97159.56;;;25.09;75.54
19596;BME280;9945;46.010;8.946;2023-09-12T00:44:57;97162.56;;;25.12;75.97
19596;BME280;9945;46.010;8.946;2023-09-12T00:47:26;97155.16;;;25.19;74.50
19596;BME280;9945;46.010;8.946;2023-09-12T00:49:54;97154.75;;;25.11;74.55
19596;BME280;9945;46.010;8.946;2023-09-12T00:52:23;97156.97;;;25.14;72.76
19596;BME280;9945;46.010;8.946;2023-09-12T00:54:51;97162.91;;;25.16;72.73
19596;BME280;9945;46.010;8.946;2023-09-12T00:57:21;97160.94;;;25.11;72.75
19596;BME280;9945;46.010;8.946;2023-09-12T00:59:49;97158.81;;;25.13;72.49
19596;BME280;9945;46.010;8.946;2023-09-12T01:02:16;97159.63;;;25.14;73.09
19596;BME280;9945;46.010;8.946;2023-09-12T01:04:43;97161.84;;;25.17;71.95
19596;BME280;9945;46.010;8.946;2023-09-12T01:07:10;97154.84;;;25.16;72.04
19596;BME280;9945;46.010;8.946;2023-09-12T01:09:37;97156.50;;;25.17;71.75
19596;BME280;9945;46.010;8.946;2023-09-12T01:12:05;97152.41;;;25.14;71.44
19596;BME280;9945;46.010;8.946;2023-09-12T01:14:33;97155.81;;;25.10;71.42
19596;BME280;9945;46.010;8.946;2023-09-12T01:17:00;97158.56;;;24.98;71.57
19596;BME280;9945;46.010;8.946;2023-09-12T01:19:28;97169.69;;;24.78;71.63
19596;BME280;9945;46.010;8.946;2023-09-12T01:22:32;97159.88;;;24.56;73.56
19596;BME280;9945;46.010;8.946;2023-09-12T01:28:13;97172.03;;;24.75;73.62
19596;BME280;9945;46.010;8.946;2023-09-12T01:30:45;97158.31;;;24.60;73.40
19596;BME280;9945;46.010;8.946;2023-09-12T01:33:15;97158.75;;;24.68;73.28
19596;BME280;9945;46.010;8.946;2023-09-12T01:35:42;97165.44;;;24.66;72.34
19596;BME280;9945;46.010;8.946;2023-09-12T01:38:11;97155.75;;;24.65;73.12
19596;BME280;9945;46.010;8.946;2023-09-12T01:40:45;97162.84;;;24.71;72.95
19596;BME280;9945;46.010;8.946;2023-09-12T01:43:16;97168.53;;;24.74;72.43
19596;BME280;9945;46.010;8.946;2023-09-12T01:45:45;97164.25;;;24.73;72.24
19596;BME280;9945;46.010;8.946;2023-09-12T01:48:13;97160.25;;;24.76;72.59
19596;BME280;9945;46.010;8.946;2023-09-12T01:50:45;97160.19;;;24.59;72.89
19596;BME280;9945;46.010;8.946;2023-09-12T01:53:12;97157.63;;;24.64;72.87
19596;BME280;9945;46.010;8.946;2023-09-12T01:55:42;97158.31;;;24.71;71.44
19596;BME280;9945;46.010;8.946;2023-09-12T01:58:14;97158.72;;;24.80;70.77
19596;BME280;9945;46.010;8.946;2023-09-12T02:00:41;97155.66;;;24.88;69.96
19596;BME280;9945;46.010;8.946;2023-09-12T02:03:08;97158.53;;;24.70;71.58
19596;BME280;9945;46.010;8.946;2023-09-12T02:05:35;97151.59;;;24.57;72.04
19596;BME280;9945;46.010;8.946;2023-09-12T02:08:03;97155.66;;;24.60;71.62
19596;BME280;9945;46.010;8.946;2023-09-12T02:10:30;97159.16;;;24.60;71.69
19596;BME280;9945;46.010;8.946;2023-09-12T02:12:57;97146.09;;;24.64;70.25
19596;BME280;9945;46.010;8.946;2023-09-12T02:15:25;97154.72;;;24.66;70.00
19596;BME280;9945;46.010;8.946;2023-09-12T02:17:52;97152.75;;;24.61;70.57
19596;BME280;9945;46.010;8.946;2023-09-12T02:20:19;97150.28;;;24.60;70.11
19596;BME280;9945;46.010;8.946;2023-09-12T02:22:47;97155.91;;;24.58;71.04
19596;BME280;9945;46.010;8.946;2023-09-12T02:25:13;97149.00;;;24.62;70.19
19596;BME280;9945;46.010;8.946;2023-09-12T02:27:40;97147.06;;;24.58;69.59
19596;BME280;9945;46.010;8.946;2023-09-12T02:30:08;97149.75;;;24.58;70.14
19596;BME280;9945;46.010;8.946;2023-09-12T02:32:36;97147.06;;;24.58;69.42
19596;BME280;9945;46.010;8.946;2023-09-12T02:35:03;97145.19;;;24.58;69.71
19596;BME280;9945;46.010;8.946;2023-09-12T02:37:30;97146.47;;;24.56;70.08
19596;BME280;9945;46.010;8.946;2023-09-12T02:39:57;97144.28;;;24.52;69.60
19596;BME280;9945;46.010;8.946;2023-09-12T02:42:24;97145.00;;;24.48;69.44
19596;BME280;9945;46.010;8.946;2023-09-12T02:44:51;97140.91;;;24.45;69.10
19596;BME280;9945;46.010;8.946;2023-09-12T02:47:18;97145.91;;;24.54;68.84
19596;BME280;9945;46.010;8.946;2023-09-12T02:49:47;97136.72;;;24.49;69.53
19596;BME280;9945;46.010;8.946;2023-09-12T02:52:14;97146.63;;;24.49;69.70
19596;BME280;9945;46.010;8.946;2023-09-12T02:54:41;97141.06;;;24.39;70.03
19596;BME280;9945;46.010;8.946;2023-09-12T02:57:08;97132.56;;;24.19;70.86
19596;BME280;9945;46.010;8.946;2023-09-12T02:59:34;97133.28;;;24.26;71.07
19596;BME280;9945;46.010;8.946;2023-09-12T03:02:02;97140.63;;;24.30;70.89
19596;BME280;9945;46.010;8.946;2023-09-12T03:04:29;97140.19;;;24.22;69.79
19596;BME280;9945;46.010;8.946;2023-09-12T03:06:57;97138.16;;;24.17;70.15
19596;BME280;9945;46.010;8.946;2023-09-12T03:09:24;97143.06;;;24.20;70.21
19596;BME280;9945;46.010;8.946;2023-09-12T03:11:51;97141.31;;;24.26;69.80
19596;BME280;9945;46.010;8.946;2023-09-12T03:14:18;97136.31;;;24.29;69.91
19596;BME280;9945;46.010;8.946;2023-09-12T03:16:45;97140.94;;;24.34;69.96
19596;BME280;9945;46.010;8.946;2023-09-12T03:19:12;97132.91;;;24.34;70.61
19596;BME280;9945;46.010;8.946;2023-09-12T03:21:40;97130.59;;;24.37;69.90
19596;BME280;9945;46.010;8.946;2023-09-12T03:24:08;97135.59;;;24.34;69.96
19596;BME280;9945;46.010;8.946;2023-09-12T03:26:35;97137.50;;;24.22;70.69
19596;BME280;9945;46.010;8.946;2023-09-12T03:29:03;97132.34;;;24.08;71.70
19596;BME280;9945;46.010;8.946;2023-09-12T03:31:30;97139.13;;;24.11;71.39
19596;BME280;9945;46.010;8.946;2023-09-12T03:33:57;97132.25;;;24.15;71.46
19596;BME280;9945;46.010;8.946;2023-09-12T03:36:23;97136.28;;;24.18;72.24
19596;BME280;9945;46.010;8.946;2023-09-12T03:38:50;97127.72;;;24.16;72.38
19596;BME280;9945;46.010;8.946;2023-09-12T03:41:19;97135.88;;;24.21;71.38
19596;BME280;9945;46.010;8.946;2023-09-12T03:43:50;97126.91;;;24.15;71.94
19596;BME280;9945;46.010;8.946;2023-09-12T03:46:17;97127.50;;;24.05;72.85
19596;BME280;9945;46.010;8.946;2023-09-12T03:48:44;97131.44;;;24.03;72.87
19596;BME280;9945;46.010;8.946;2023-09-12T03:51:11;97131.53;;;24.08;72.50
19596;BME280;9945;46.010;8.946;2023-09-12T03:53:38;97129.31;;;24.17;71.70
19596;BME280;9945;46.010;8.946;2023-09-12T03:56:05;97127.84;;;24.21;71.26
19596;BME280;9945;46.010;8.946;2023-09-12T03:58:33;97130.88;;;24.24;71.62
19596;BME280;9945;46.010;8.946;2023-09-12T04:01:00;97121.22;;;24.23;71.04
19596;BME280;9945;46.010;8.946;2023-09-12T04:03:27;97123.88;;;24.23;71.04
19596;BME280;9945;46.010;8.946;2023-09-12T04:05:54;97127.72;;;24.16;72.07
19596;BME280;9945;46.010;8.946;2023-09-12T04:08:21;97132.34;;;24.08;72.10
19596;BME280;9945;46.010;8.946;2023-09-12T04:10:48;97136.56;;;23.93;73.49
19596;BME280;9945;46.010;8.946;2023-09-12T04:13:15;97138.66;;;24.02;72.18
19596;BME280;9945;46.010;8.946;2023-09-12T04:15:43;97138.75;;;24.07;71.98
19596;BME280;9945;46.010;8.946;2023-09-12T04:18:10;97137.72;;;24.08;72.01
19596;BME280;9945;46.010;8.946;2023-09-12T04:20:37;97142.59;;;24.00;73.17
19596;BME280;9945;46.010;8.946;2023-09-12T04:23:04;97143.09;;;23.97;72.91
19596;BME280;9945;46.010;8.946;2023-09-12T04:25:31;97151.56;;;23.94;73.91
19596;BME280;9945;46.010;8.946;2023-09-12T04:27:58;97152.41;;;23.94;73.09
19596;BME280;9945;46.010;8.946;2023-09-12T04:30:26;97152.75;;;23.98;73.68
19596;BME280;9945;46.010;8.946;2023-09-12T04:32:54;97154.63;;;23.97;73.20
19596;BME280;9945;46.010;8.946;2023-09-12T04:35:21;97150.75;;;23.93;74.51
19596;BME280;9945;46.010;8.946;2023-09-12T04:37:50;97157.75;;;23.94;73.99
19596;BME280;9945;46.010;8.946;2023-09-12T04:40:17;97154.97;;;23.89;74.60
19596;BME280;9945;46.010;8.946;2023-09-12T04:42:44;97157.38;;;23.91;75.17
19596;BME280;9945;46.010;8.946;2023-09-12T04:45:11;97157.50;;;23.84;75.16
19596;BME280;9945;46.010;8.946;2023-09-12T04:47:38;97154.59;;;23.86;75.26
19596;BME280;9945;46.010;8.946;2023-09-12T04:50:07;97157.88;;;23.88;75.60
19596;BME280;9945;46.010;8.946;2023-09-12T04:52:34;97151.72;;;23.87;76.12
19596;BME280;9945;46.010;8.946;2023-09-12T04:55:01;97159.00;;;23.92;76.09
19596;BME280;9945;46.010;8.946;2023-09-12T04:57:29;97155.06;;;23.94;75.62
19596;BME280;9945;46.010;8.946;2023-09-12T04:59:56;97159.38;;;23.95;75.68
19596;BME280;9945;46.010;8.946;2023-09-12T05:02:24;97154.97;;;23.89;76.19
19596;BME280;9945;46.010;8.946;2023-09-12T05:04:50;97159.38;;;23.84;75.98
19596;BME280;9945;46.010;8.946;2023-09-12T05:07:19;97160.53;;;23.76;76.85
19596;BME280;9945;46.010;8.946;2023-09-12T05:09:46;97159.72;;;23.75;76.48
19596;BME280;9945;46.010;8.946;2023-09-12T05:12:12;97168.91;;;23.68;78.92
19596;BME280;9945;46.010;8.946;2023-09-12T05:14:39;97167.84;;;23.57;78.00
19596;BME280;9945;46.010;8.946;2023-09-12T05:17:06;97165.88;;;23.53;78.76
19596;BME280;9945;46.010;8.946;2023-09-12T05:19:33;97170.50;;;23.46;79.40
19596;BME280;9945;46.010;8.946;2023-09-12T05:22:00;97163.81;;;23.55;79.22
19596;BME280;9945;46.010;8.946;2023-09-12T05:24:28;97163.81;;;23.55;80.09
19596;BME280;9945;46.010;8.946;2023-09-12T05:26:55;97163.47;;;23.63;78.45
19596;BME280;9945;46.010;8.946;2023-09-12T05:29:22;97169.72;;;23.68;77.83
19596;BME280;9945;46.010;8.946;2023-09-12T05:31:49;97179.13;;;23.83;77.34
19596;BME280;9945;46.010;8.946;2023-09-12T05:34:16;97173.56;;;23.96;75.65
19596;BME280;9945;46.010;8.946;2023-09-12T05:36:43;97168.91;;;23.91;76.20
19596;BME280;9945;46.010;8.946;2023-09-12T05:39:10;97171.03;;;23.89;76.61
19596;BME280;9945;46.010;8.946;2023-09-12T05:41:40;97179.84;;;23.90;76.39
19596;BME280;9945;46.010;8.946;2023-09-12T05:44:07;97185.78;;;23.92;75.33
19596;BME280;9945;46.010;8.946;2023-09-12T05:46:35;97196.00;;;23.95;75.80
19596;BME280;9945;46.010;8.946;2023-09-12T05:49:01;97201.38;;;23.95;75.79
19596;BME280;9945;46.010;8.946;2023-09-12T05:51:29;97200.56;;;23.94;76.10
19596;BME280;9945;46.010;8.946;2023-09-12T05:53:56;97210.66;;;23.92;76.56
19596;BME280;9945;46.010;8.946;2023-09-12T05:56:22;97209.75;;;23.87;76.99
19596;BME280;9945;46.010;8.946;2023-09-12T05:58:51;97214.50;;;23.85;76.67
19596;BME280;9945;46.010;8.946;2023-09-12T06:01:18;97216.50;;;23.89;76.03
19596;BME280;9945;46.010;8.946;2023-09-12T06:03:44;97218.22;;;23.95;75.80
19596;BME280;9945;46.010;8.946;2023-09-12T06:06:11;97216.00;;;23.92;74.92
19596;BME280;9945;46.010;8.946;2023-09-12T06:08:38;97220.41;;;23.75;75.93
19596;BME280;9945;46.010;8.946;2023-09-12T06:11:05;97224.59;;;23.59;78.34
19596;BME280;9945;46.010;8.946;2023-09-12T06:13:32;97223.78;;;23.59;78.69
19596;BME280;9945;46.010;8.946;2023-09-12T06:16:05;97221.34;;;23.69;77.91
19596;BME280;9945;46.010;8.946;2023-09-12T06:18:32;97230.19;;;23.69;77.41
19596;BME280;9945;46.010;8.946;2023-09-12T06:21:00;97238.09;;;23.76;77.02
19596;BME280;9945;46.010;8.946;2023-09-12T06:23:29;97225.44;;;23.83;77.56
19596;BME280;9945;46.010;8.946;2023-09-12T06:25:56;97228.34;;;23.93;77.02
19596;BME280;9945;46.010;8.946;2023-09-12T06:28:28;97226.50;;;24.05;77.00
19596;BME280;9945;46.010;8.946;2023-09-12T06:30:55;97217.31;;;24.13;76.58
19596;BME280;9945;46.010;8.946;2023-09-12T06:33:25;97207.91;;;24.22;75.57
19596;BME280;9945;46.010;8.946;2023-09-12T06:35:52;97211.84;;;24.31;75.31
19596;BME280;9945;46.010;8.946;2023-09-12T06:38:19;97214.03;;;24.34;76.09
19596;BME280;9945;46.010;8.946;2023-09-12T06:40:47;97209.94;;;24.43;75.37
19596;BME280;9945;46.010;8.946;2023-09-12T06:43:14;97203.22;;;24.29;75.61
19596;BME280;9945;46.010;8.946;2023-09-12T06:45:41;97208.22;;;24.37;74.72
19596;BME280;9945;46.010;8.946;2023-09-12T06:48:08;97212.84;;;24.42;75.68
19596;BME280;9945;46.010;8.946;2023-09-12T06:50:36;97213.34;;;24.39;74.67
19596;BME280;9945;46.010;8.946;2023-09-12T06:53:04;97208.81;;;24.39;74.19
19596;BME280;9945;46.010;8.946;2023-09-12T06:55:32;97210.44;;;24.40;74.42
19596;BME280;9945;46.010;8.946;2023-09-12T06:57:59;97215.06;;;24.45;74.26
19596;BME280;9945;46.010;8.946;2023-09-12T07:00:26;97217.41;;;24.41;75.01
19596;BME280;9945;46.010;8.946;2023-09-12T07:02:53;97218.91;;;24.49;74.63
19596;BME280;9945;46.010;8.946;2023-09-12T07:05:20;97227.06;;;24.54;74.49
19596;BME280;9945;46.010;8.946;2023-09-12T07:07:48;97222.38;;;24.61;73.26
19596;BME280;9945;46.010;8.946;2023-09-12T07:10:15;97221.47;;;24.44;73.19
19596;BME280;9945;46.010;8.946;2023-09-12T07:12:42;97218.78;;;24.44;73.26
19596;BME280;9945;46.010;8.946;2023-09-12T07:15:10;97223.47;;;24.37;74.54
19596;BME280;9945;46.010;8.946;2023-09-12T07:17:37;97230.00;;;24.41;74.44
19596;BME280;9945;46.010;8.946;2023-09-12T07:20:05;97221.91;;;24.52;73.35
19596;BME280;9945;46.010;8.946;2023-09-12T07:22:37;97230.91;;;24.58;74.26
19596;BME280;9945;46.010;8.946;2023-09-12T07:25:08;97235.94;;;24.83;72.98
19596;BME280;9945;46.010;8.946;2023-09-12T07:27:37;97230.69;;;25.00;72.51
19596;BME280;9945;46.010;8.946;2023-09-12T07:30:05;97226.22;;;25.05;71.73
19596;BME280;9945;46.010;8.946;2023-09-12T07:32:32;97227.66;;;25.24;71.88
19596;BME280;9945;46.010;8.946;2023-09-12T07:34:59;97221.66;;;25.34;73.48
19596;BME280;9945;46.010;8.946;2023-09-12T07:37:26;97232.63;;;25.33;73.84
19596;BME280;9945;46.010;8.946;2023-09-12T07:39:52;97228.81;;;25.45;73.54
19596;BME280;9945;46.010;8.946;2023-09-12T07:42:22;97235.91;;;25.51;72.66
19596;BME280;9945;46.010;8.946;2023-09-12T07:44:49;97232.25;;;25.57;72.24
19596;BME280;9945;46.010;8.946;2023-09-12T07:47:16;97233.72;;;25.48;71.52
19596;BME280;9945;46.010;8.946;2023-09-12T07:49:43;97237.38;;;25.42;71.53
19596;BME280;9945;46.010;8.946;2023-09-12T07:52:10;97230.59;;;25.40;71.16
19596;BME280;9945;46.010;8.946;2023-09-12T07:54:37;97237.81;;;25.22;73.23
19596;BME280;9945;46.010;8.946;2023-09-12T07:57:04;97232.53;;;25.44;71.51
19596;BME280;9945;46.010;8.946;2023-09-12T07:59:33;97243.09;;;25.17;72.92
19596;BME280;9945;46.010;8.946;2023-09-12T08:02:00;97246.97;;;25.26;74.15
19596;BME280;9945;46.010;8.946;2023-09-12T08:04:27;97242.25;;;25.17;74.02
19596;BME280;9945;46.010;8.946;2023-09-12T08:06:54;97248.13;;;25.31;74.66
19596;BME280;9945;46.010;8.946;2023-09-12T08:09:21;97237.44;;;25.47;72.73
19596;BME280;9945;46.010;8.946;2023-09-12T08:11:47;97242.28;;;25.62;73.19
19596;BME280;9945;46.010;8.946;2023-09-12T08:14:14;97242.91;;;25.69;72.00
19596;BME280;9945;46.010;8.946;2023-09-12T08:16:42;97243.59;;;25.59;72.76
19596;BME280;9945;46.010;8.946;2023-09-12T08:19:09;97247.81;;;25.89;73.44
19596;BME280;9945;46.010;8.946;2023-09-12T08:21:36;97254.56;;;26.08;71.93
19596;BME280;9945;46.010;8.946;2023-09-12T08:24:03;97248.47;;;25.96;70.84
19596;BME280;9945;46.010;8.946;2023-09-12T08:26:30;97260.97;;;26.24;69.06
19596;BME280;9945;46.010;8.946;2023-09-12T08:28:57;97245.66;;;26.24;69.35
19596;BME280;9945;46.010;8.946;2023-09-12T08:31:24;97248.13;;;26.43;69.17
19596;BME280;9945;46.010;8.946;2023-09-12T08:33:54;97246.38;;;26.75;67.49
19596;BME280;9945;46.010;8.946;2023-09-12T08:36:21;97241.44;;;26.89;67.78
19596;BME280;9945;46.010;8.946;2023-09-12T08:38:48;97234.19;;;26.89;67.13
19596;BME280;9945;46.010;8.946;2023-09-12T08:41:15;97227.44;;;26.87;66.80
19596;BME280;9945;46.010;8.946;2023-09-12T08:43:42;97240.75;;;26.77;66.95
19596;BME280;9945;46.010;8.946;2023-09-12T08:46:10;97235.69;;;26.58;67.58
19596;BME280;9945;46.010;8.946;2023-09-12T08:48:38;97233.88;;;26.86;66.83
19596;BME280;9945;46.010;8.946;2023-09-12T08:51:08;97235.63;;;26.75;67.00
19596;BME280;9945;46.010;8.946;2023-09-12T08:53:37;97228.94;;;26.99;66.41
19596;BME280;9945;46.010;8.946;2023-09-12T08:56:04;97228.47;;;27.29;65.38
19596;BME280;9945;46.010;8.946;2023-09-12T08:58:32;97232.63;;;27.42;65.09
19596;BME280;9945;46.010;8.946;2023-09-12T09:00:59;97229.47;;;27.50;65.34
19596;BME280;9945;46.010;8.946;2023-09-12T09:03:29;97232.22;;;27.01;65.99
19596;BME280;9945;46.010;8.946;2023-09-12T09:05:57;97229.78;;;27.00;65.49
19596;BME280;9945;46.010;8.946;2023-09-12T09:08:26;97238.97;;;27.31;64.65
19596;BME280;9945;46.010;8.946;2023-09-12T09:10:55;97238.69;;;27.54;62.75
19596;BME280;9945;46.010;8.946;2023-09-12T09:13:22;97234.34;;;27.80;61.57
19596;BME280;9945;46.010;8.946;2023-09-12T09:16:09;97227.03;;;27.75;61.59
19596;BME280;9945;46.010;8.946;2023-09-12T09:18:50;97231.19;;;27.88;61.79
19596;BME280;9945;46.010;8.946;2023-09-12T09:21:18;97232.00;;;27.89;61.42
19596;BME280;9945;46.010;8.946;2023-09-12T09:23:47;97228.97;;;28.17;60.79
19596;BME280;9945;46.010;8.946;2023-09-12T09:26:14;97230.09;;;28.26;60.97
19596;BME280;9945;46.010;8.946;2023-09-12T09:28:41;97224.28;;;28.44;60.44
19596;BME280;9945;46.010;8.946;2023-09-12T09:31:10;97228.63;;;28.50;58.58
19596;BME280;9945;46.010;8.946;2023-09-12T09:33:39;97229.59;;;28.29;58.03
19596;BME280;9945;46.010;8.946;2023-09-12T09:36:07;97230.03;;;28.58;59.42
19596;BME280;9945;46.010;8.946;2023-09-12T09:38:34;97226.63;;;28.78;58.05
19596;BME280;9945;46.010;8.946;2023-09-12T09:41:06;97217.50;;;28.89;57.16
19596;BME280;9945;46.010;8.946;2023-09-12T09:43:33;97213.78;;;29.00;57.80
19596;BME280;9945;46.010;8.946;2023-09-12T09:45:59;97222.09;;;28.93;57.90
19596;BME280;9945;46.010;8.946;2023-09-12T09:48:27;97222.94;;;29.04;56.95
19596;BME280;9945;46.010;8.946;2023-09-12T09:51:00;97222.72;;;29.21;56.07
19596;BME280;9945;46.010;8.946;2023-09-12T09:53:27;97221.09;;;29.20;55.57
19596;BME280;9945;46.010;8.946;2023-09-12T09:56:09;97217.88;;;29.23;56.17
19596;BME280;9945;46.010;8.946;2023-09-12T09:58:36;97216.25;;;29.32;55.81
19596;BME280;9945;46.010;8.946;2023-09-12T10:01:06;97219.81;;;29.53;55.87
19596;BME280;9945;46.010;8.946;2023-09-12T10:03:36;97226.31;;;29.77;52.88
19596;BME280;9945;46.010;8.946;2023-09-12T10:06:04;97224.72;;;30.01;53.27
19596;BME280;9945;46.010;8.946;2023-09-12T10:08:32;97225.75;;;29.80;54.33
19596;BME280;9945;46.010;8.946;2023-09-12T10:10:59;97222.97;;;29.14;55.28
19596;BME280;9945;46.010;8.946;2023-09-12T10:13:29;97220.25;;;28.99;56.72
19596;BME280;9945;46.010;8.946;2023-09-12T10:15:59;97221.78;;;28.85;56.16
19596;BME280;9945;46.010;8.946;2023-09-12T10:18:31;97217.59;;;29.29;56.86
19596;BME280;9945;46.010;8.946;2023-09-12T10:21:07;97217.38;;;29.71;53.57
19596;BME280;9945;46.010;8.946;2023-09-12T10:23:38;97214.88;;;30.46;51.14
19596;BME280;9945;46.010;8.946;2023-09-12T10:26:10;97226.25;;;31.56;47.57
19596;BME280;9945;46.010;8.946;2023-09-12T10:28:40;97222.50;;;32.97;44.30
19596;BME280;9945;46.010;8.946;2023-09-12T10:31:09;97211.50;;;33.44;43.04
19596;BME280;9945;46.010;8.946;2023-09-12T10:33:38;97223.16;;;33.08;43.12
19596;BME280;9945;46.010;8.946;2023-09-12T10:36:06;97219.09;;;32.39;45.14
19596;BME280;9945;46.010;8.946;2023-09-12T10:38:40;97214.16;;;31.83;46.38
19596;BME280;9945;46.010;8.946;2023-09-12T10:41:11;97214.03;;;31.25;47.63
19596;BME280;9945;46.010;8.946;2023-09-12T10:43:41;97217.75;;;30.80;49.21
19596;BME280;9945;46.010;8.946;2023-09-12T10:46:12;97204.94;;;31.11;49.33
19596;BME280;9945;46.010;8.946;2023-09-12T10:48:39;97206.97;;;31.29;49.34
19596;BME280;9945;46.010;8.946;2023-09-12T10:51:08;97210.63;;;31.87;48.28
19596;BME280;9945;46.010;8.946;2023-09-12T10:53:36;97219.47;;;32.27;47.64
19596;BME280;9945;46.010;8.946;2023-09-12T10:56:16;97215.28;;;32.11;46.30
19596;BME280;9945;46.010;8.946;2023-09-12T10:59:13;97218.16;;;31.90;48.02
19596;BME280;9945;46.010;8.946;2023-09-12T11:01:42;97210.72;;;32.06;46.79
19596;BME280;9945;46.010;8.946;2023-09-12T11:04:32;97211.56;;;32.02;47.69
19596;BME280;9945;46.010;8.946;2023-09-12T11:07:30;97213.59;;;31.86;48.98
19596;BME280;9945;46.010;8.946;2023-09-12T11:10:20;97203.09;;;31.79;48.57
19596;BME280;9945;46.010;8.946;2023-09-12T11:12:48;97205.81;;;31.79;49.83
19596;BME280;9945;46.010;8.946;2023-09-12T11:15:18;97203.94;;;31.75;50.08
19596;BME280;9945;46.010;8.946;2023-09-12T11:17:46;97200.44;;;31.35;50.60
19596;BME280;9945;46.010;8.946;2023-09-12T11:20:15;97205.09;;;31.25;50.75
19596;BME280;9945;46.010;8.946;2023-09-12T11:22:44;97204.88;;;31.16;50.19
19596;BME280;9945;46.010;8.946;2023-09-12T11:25:19;97206.50;;;31.17;51.47
19596;BME280;9945;46.010;8.946;2023-09-12T11:28:03;97205.31;;;31.33;53.01
19596;BME280;9945;46.010;8.946;2023-09-12T11:30:32;97201.16;;;30.97;53.10
19596;BME280;9945;46.010;8.946;2023-09-12T11:33:03;97201.75;;;30.94;53.54
19596;BME280;9945;46.010;8.946;2023-09-12T11:35:36;97196.78;;;31.06;53.88
19596;BME280;9945;46.010;8.946;2023-09-12T11:38:03;97198.91;;;31.19;53.45
19596;BME280;9945;46.010;8.946;2023-09-12T11:40:42;97206.41;;;31.32;52.28
19596;BME280;9945;46.010;8.946;2023-09-12T11:43:20;97191.78;;;31.33;52.47
19596;BME280;9945;46.010;8.946;2023-09-12T11:45:49;97196.88;;;31.79;51.37
19596;BME280;9945;46.010;8.946;2023-09-12T11:48:17;97184.41;;;32.36;50.46
19596;BME280;9945;46.010;8.946;2023-09-12T11:50:49;97182.78;;;32.82;49.45
19596;BME280;9945;46.010;8.946;2023-09-12T11:53:19;97184.03;;;32.90;48.63
19596;BME280;9945;46.010;8.946;2023-09-12T11:55:48;97187.25;;;32.73;48.79
19596;BME280;9945;46.010;8.946;2023-09-12T11:58:17;97188.28;;;32.29;49.24
19596;BME280;9945;46.010;8.946;2023-09-12T12:00:46;97173.09;;;32.52;49.53
19596;BME280;9945;46.010;8.946;2023-09-12T12:03:15;97186.25;;;32.88;48.37
19596;BME280;9945;46.010;8.946;2023-09-12T12:05:43;97175.53;;;32.96;48.28
19596;BME280;9945;46.010;8.946;2023-09-12T12:08:10;97179.88;;;33.35;45.13
19596;BME280;9945;46.010;8.946;2023-09-12T12:10:38;97178.19;;;33.20;46.04
19596;BME280;9945;46.010;8.946;2023-09-12T12:13:05;97170.53;;;33.03;47.22
19596;BME280;9945;46.010;8.946;2023-09-12T12:15:33;97174.28;;;32.89;47.70
19596;BME280;9945;46.010;8.946;2023-09-12T12:18:00;97177.50;;;32.67;48.47
19596;BME280;9945;46.010;8.946;2023-09-12T12:20:28;97182.56;;;32.55;47.89
19596;BME280;9945;46.010;8.946;2023-09-12T12:22:56;97186.03;;;32.37;48.76
19596;BME280;9945;46.010;8.946;2023-09-12T12:25:23;97180.72;;;32.26;49.93
19596;BME280;9945;46.010;8.946;2023-09-12T12:27:50;97181.09;;;31.86;50.79
19596;BME280;9945;46.010;8.946;2023-09-12T12:30:18;97178.03;;;31.25;52.04
19596;BME280;9945;46.010;8.946;2023-09-12T12:32:46;97176.41;;;31.24;52.07
19596;BME280;9945;46.010;8.946;2023-09-12T12:35:17;97184.78;;;31.27;51.36
19596;BME280;9945;46.010;8.946;2023-09-12T12:37:47;97175.44;;;31.04;51.91
19596;BME280;9945;46.010;8.946;2023-09-12T12:40:15;97178.16;;;30.99;52.72
19596;BME280;9945;46.010;8.946;2023-09-12T12:42:43;97172.56;;;30.86;53.07
19596;BME280;9945;46.010;8.946;2023-09-12T12:45:12;97178.41;;;30.43;54.94
19596;BME280;9945;46.010;8.946;2023-09-12T12:47:39;97178.34;;;30.69;54.17
19596;BME280;9945;46.010;8.946;2023-09-12T12:50:07;97185.66;;;30.58;52.98
19596;BME280;9945;46.010;8.946;2023-09-12T12:52:34;97180.53;;;30.62;53.37
19596;BME280;9945;46.010;8.946;2023-09-12T12:55:09;97179.03;;;30.90;52.21
19596;BME280;9945;46.010;8.946;2023-09-12T12:57:37;97168.94;;;31.10;51.48
19596;BME280;9945;46.010;8.946;2023-09-12T13:00:08;97176.31;;;31.39;50.59
19596;BME280;9945;46.010;8.946;2023-09-12T13:02:36;97164.06;;;31.07;50.84
19596;BME280;9945;46.010;8.946;2023-09-12T13:05:04;97167.84;;;31.06;50.82
19596;BME280;9945;46.010;8.946;2023-09-12T13:07:33;97163.72;;;30.70;51.04
19596;BME280;9945;46.010;8.946;2023-09-12T13:10:01;97160.78;;;30.61;51.47
19596;BME280;9945;46.010;8.946;2023-09-12T13:12:29;97151.03;;;30.65;50.16
19596;BME280;9945;46.010;8.946;2023-09-12T13:14:57;97153.69;;;30.75;50.65
19596;BME280;9945;46.010;8.946;2023-09-12T13:17:24;97146.81;;;30.93;50.58
19596;BME280;9945;46.010;8.946;2023-09-12T13:19:51;97139.03;;;30.87;50.02